Time;durP1;ratioP1;P1;durP2;ratioP2;P2;SDS_P1;SDS_P2;PMS_P1;PMS_P2;Temp;Humidity;BMP_temperature;BMP_pressure;BME280_temperature;BME280_humidity;BME280_pressure;Samples;Min_cycle;Max_cycle;Signal;HPM_P1;HPM_P2
2021/06/24 00:01:49;;;;;;;0.20;0.20;;;;;;;14.65;82.00;101472.81;5070740;28;20061;-85
2021/06/24 00:04:22;;;;;;;0.20;0.20;;;;;;;14.76;82.36;101477.13;5062369;28;20040;-85
2021/06/24 00:07:02;;;;;;;0.17;0.17;;;;;;;15.01;81.73;101496.34;5064261;28;20067;-84
2021/06/24 00:09:36;;;;;;;0.10;0.10;;;;;;;14.87;82.23;101507.97;5067155;28;20049;-85
2021/06/24 00:12:11;;;;;;;0.20;0.20;;;;;;;14.83;82.09;101498.72;5058053;28;20048;-84
2021/06/24 00:18:12;;;;;;;0.20;0.20;;;;;;;14.90;82.24;101504.69;5066051;28;20048;-84
2021/06/24 00:20:44;;;;;;;0.30;0.30;;;;;;;15.07;80.98;101514.38;5072269;28;20052;-84
2021/06/24 00:23:15;;;;;;;0.20;0.20;;;;;;;14.78;82.09;101501.50;5059517;28;20053;-84
2021/06/24 00:25:53;;;;;;;0.30;0.20;;;;;;;14.85;81.83;101492.94;5064319;28;20052;-85
2021/06/24 00:28:34;;;;;;;0.10;0.10;;;;;;;14.76;82.35;101485.34;5061574;28;20041;-85
2021/06/24 00:31:52;;;;;;;0.20;0.20;;;;;;;14.61;82.91;101499.97;5059252;28;20052;-84
2021/06/24 00:34:24;;;;;;;0.30;0.30;;;;;;;14.78;82.01;101499.56;5057257;28;20049;-85
2021/06/24 00:37:00;;;;;;;0.25;0.25;;;;;;;14.70;81.98;101493.91;5061922;28;20492;-84
2021/06/24 00:39:56;;;;;;;0.15;0.15;;;;;;;14.76;81.99;101523.72;5071176;28;20048;-84
2021/06/24 00:42:32;;;;;;;0.20;0.20;;;;;;;14.76;81.79;101514.66;5059970;28;20037;-85
2021/06/24 00:45:13;;;;;;;0.20;0.20;;;;;;;14.70;81.80;101526.78;5062404;28;20068;-84
2021/06/24 00:47:45;;;;;;;0.20;0.20;;;;;;;14.67;81.89;101528.16;5060564;28;20088;-84
2021/06/24 00:50:24;;;;;;;0.15;0.15;;;;;;;14.68;81.77;101528.97;5055030;28;20045;-85
2021/06/24 00:53:04;;;;;;;0.10;0.10;;;;;;;14.66;82.23;101536.66;5058061;28;20037;-86
2021/06/24 00:55:44;;;;;;;0.20;0.20;;;;;;;14.67;81.83;101538.31;5060385;28;20051;-85
2021/06/24 00:58:16;;;;;;;0.17;0.17;;;;;;;14.66;82.71;101550.38;5066549;28;20060;-85
2021/06/24 01:00:48;;;;;;;0.20;0.20;;;;;;;14.61;82.21;101546.53;5064832;28;20052;-85
2021/06/24 01:03:22;;;;;;;0.20;0.20;;;;;;;14.58;82.07;101551.75;5065535;28;20052;-86
2021/06/24 01:05:55;;;;;;;0.17;0.17;;;;;;;14.53;82.70;101546.31;5062278;28;20067;-84
2021/06/24 01:08:56;;;;;;;0.32;0.20;;;;;;;14.52;82.79;101547.44;5069305;28;20049;-84
2021/06/24 01:11:35;;;;;;;0.20;0.20;;;;;;;14.48;83.12;101538.16;5053098;28;20854;-84
2021/06/24 01:14:09;;;;;;;0.20;0.20;;;;;;;14.53;82.65;101536.19;5068114;28;20053;-84
2021/06/24 01:16:42;;;;;;;0.20;0.20;;;;;;;14.53;82.35;101527.13;5072879;28;20056;-84
2021/06/24 01:19:17;;;;;;;0.10;0.10;;;;;;;14.52;82.41;101529.06;5060844;28;20087;-84
2021/06/24 01:21:51;;;;;;;0.10;0.10;;;;;;;14.60;81.54;101530.38;5056708;28;20040;-85
2021/06/24 01:24:21;;;;;;;0.10;0.10;;;;;;;14.53;81.99;101533.44;5067972;28;20497;-84
2021/06/24 01:27:04;;;;;;;0.10;0.10;;;;;;;14.47;81.76;101515.41;5063537;28;20040;-85
2021/06/24 01:30:26;;;;;;;0.20;0.20;;;;;;;14.53;81.31;101525.22;5053896;28;20047;-85
2021/06/24 01:33:20;;;;;;;0.10;0.10;;;;;;;14.50;82.22;101522.22;5059992;28;20045;-84
2021/06/24 01:36:00;;;;;;;0.15;0.15;;;;;;;14.52;82.06;101523.59;5060306;28;20477;-84
2021/06/24 01:39:09;;;;;;;0.10;0.10;;;;;;;14.54;82.01;101504.97;5063317;28;20060;-84
2021/06/24 01:41:59;;;;;;;0.20;0.20;;;;;;;14.52;82.14;101498.94;5055562;28;20060;-84
2021/06/24 01:44:35;;;;;;;0.10;0.10;;;;;;;14.62;81.91;101495.28;5056293;28;20048;-84
2021/06/24 01:47:13;;;;;;;0.20;0.20;;;;;;;14.38;82.08;101487.00;5053028;28;20045;-83
2021/06/24 01:49:50;;;;;;;0.20;0.20;;;;;;;14.31;82.53;101490.06;5058463;28;20371;-85
2021/06/24 01:52:27;;;;;;;0.20;0.20;;;;;;;14.32;82.87;101497.19;5059044;28;20049;-84
2021/06/24 01:59:31;;;;;;;0.20;0.20;;;;;;;14.25;82.86;101491.19;5056777;28;20040;-84
2021/06/24 02:02:11;;;;;;;0.20;0.20;;;;;;;14.27;82.86;101491.75;5071082;28;20044;-84
2021/06/24 02:05:06;;;;;;;0.10;0.10;;;;;;;14.23;83.57;101482.47;5071554;28;20386;-84
2021/06/24 02:07:44;;;;;;;0.20;0.20;;;;;;;14.20;83.47;101480.31;5060074;28;20478;-85
2021/06/24 02:10:35;;;;;;;0.20;0.20;;;;;;;14.28;83.69;101475.03;5067464;28;20063;-85
2021/06/24 02:13:09;;;;;;;0.20;0.20;;;;;;;14.15;84.22;101469.38;5066502;28;20060;-85
2021/06/24 02:15:50;;;;;;;0.20;0.20;;;;;;;14.14;83.94;101474.06;5068742;28;20056;-84
2021/06/24 02:18:25;;;;;;;0.20;0.20;;;;;;;14.13;84.12;101472.41;5058073;28;20045;-86
2021/06/24 02:21:01;;;;;;;0.20;0.20;;;;;;;14.08;84.53;101466.97;5055308;28;20048;-85
2021/06/24 02:23:44;;;;;;;0.10;0.10;;;;;;;14.11;84.38;101456.28;5067529;28;20303;-85
2021/06/24 02:27:19;;;;;;;0.20;0.20;;;;;;;14.24;84.03;101470.41;5066503;28;20124;-85
2021/06/24 02:30:17;;;;;;;0.10;0.10;;;;;;;14.17;84.50;101480.84;5056296;28;20056;-85
2021/06/24 02:32:59;;;;;;;0.20;0.20;;;;;;;14.15;85.07;101486.63;5058787;28;20716;-85
2021/06/24 02:36:00;;;;;;;0.10;0.10;;;;;;;14.17;85.18;101505.50;5068190;28;20049;-85
2021/06/24 02:38:40;;;;;;;0.20;0.20;;;;;;;14.21;84.87;101495.59;5069703;28;20053;-85
2021/06/24 02:41:14;;;;;;;0.20;0.20;;;;;;;14.16;84.27;101490.19;5062319;28;20060;-85
2021/06/24 02:44:17;;;;;;;0.20;0.20;;;;;;;14.38;83.75;101492.50;5066728;28;20397;-85
2021/06/24 02:46:53;;;;;;;0.20;0.20;;;;;;;14.17;84.56;101487.16;5053975;28;20052;-85
2021/06/24 02:49:33;;;;;;;0.20;0.20;;;;;;;14.06;84.91;101480.13;5064760;28;20057;-85
2021/06/24 02:52:13;;;;;;;0.10;0.10;;;;;;;14.24;84.13;101487.66;5057422;28;20428;-85
2021/06/24 02:54:44;;;;;;;0.10;0.10;;;;;;;14.09;84.88;101483.09;5056635;28;20045;-85
2021/06/24 02:57:19;;;;;;;0.10;0.10;;;;;;;14.04;85.14;101482.31;5058427;28;20049;-85
2021/06/24 03:00:18;;;;;;;0.10;0.10;;;;;;;14.02;85.24;101479.88;5045419;28;20051;-85
2021/06/24 03:03:11;;;;;;;0.10;0.10;;;;;;;13.99;85.23;101477.69;5063335;28;20405;-84
2021/06/24 03:06:07;;;;;;;0.10;0.10;;;;;;;13.97;84.94;101482.63;5067277;28;20061;-85
2021/06/24 03:08:41;;;;;;;0.20;0.20;;;;;;;14.02;84.55;101479.88;5068821;28;20051;-85
2021/06/24 03:11:09;;;;;;;0.10;0.10;;;;;;;13.94;84.90;101472.25;5059100;28;20414;-85
2021/06/24 03:13:49;;;;;;;0.10;0.10;;;;;;;13.91;84.50;101470.09;5067631;28;20052;-85
2021/06/24 03:17:14;;;;;;;0.20;0.20;;;;;;;13.94;84.93;101473.06;5062112;28;20037;-84
2021/06/24 03:19:50;;;;;;;0.20;0.20;;;;;;;13.80;84.54;101449.38;5055289;28;20045;-85
2021/06/24 03:22:26;;;;;;;0.20;0.20;;;;;;;13.86;84.35;101454.50;5055949;28;20052;-85
2021/06/24 03:25:05;;;;;;;0.10;0.10;;;;;;;13.89;84.33;101464.06;5072689;28;20057;-85
2021/06/24 03:28:04;;;;;;;0.20;0.20;;;;;;;13.89;84.74;101475.00;5066346;28;20045;-84
2021/06/24 03:31:06;;;;;;;0.20;0.20;;;;;;;13.84;84.95;101475.88;5056931;28;20524;-85
2021/06/24 03:33:43;;;;;;;0.10;0.10;;;;;;;13.98;84.39;101480.72;5060503;28;20048;-86
2021/06/24 03:36:22;;;;;;;0.20;0.20;;;;;;;13.98;83.93;101475.25;5061854;28;20405;-85
2021/06/24 03:38:57;;;;;;;0.20;0.20;;;;;;;13.96;84.06;101475.50;5062218;28;20053;-85
2021/06/24 03:41:30;;;;;;;0.20;0.20;;;;;;;13.92;84.53;101471.72;5061201;28;20452;-85
2021/06/24 03:44:10;;;;;;;0.13;0.13;;;;;;;13.99;84.29;101474.13;5065405;28;20044;-86
2021/06/24 03:46:46;;;;;;;0.20;0.20;;;;;;;13.77;85.02;101475.38;5066821;28;20049;-85
2021/06/24 03:50:11;;;;;;;0.10;0.10;;;;;;;13.94;84.36;101477.72;5063831;28;20037;-85
2021/06/24 03:53:17;;;;;;;0.20;0.20;;;;;;;13.91;84.11;101481.03;5069054;28;20068;-84
2021/06/24 03:55:49;;;;;;;0.20;0.20;;;;;;;13.85;85.11;101487.63;5066610;28;20048;-85
2021/06/24 03:59:42;;;;;;;0.17;0.17;;;;;;;13.97;84.42;101488.09;5055191;28;20048;-84
2021/06/24 04:02:23;;;;;;;0.20;0.20;;;;;;;13.85;84.84;101483.00;5063376;28;20404;-86
2021/06/24 04:04:57;;;;;;;0.10;0.10;;;;;;;13.94;84.16;101483.19;5068648;28;20056;-85
2021/06/24 04:07:29;;;;;;;0.20;0.20;;;;;;;14.05;84.79;101494.91;5070133;28;20087;-84
2021/06/24 04:10:11;;;;;;;0.20;0.20;;;;;;;13.89;85.22;101483.22;5053954;28;20816;-85
2021/06/24 04:12:42;;;;;;;0.15;0.15;;;;;;;13.68;85.10;101488.00;5067637;28;20041;-84
2021/06/24 04:15:32;;;;;;;0.20;0.20;;;;;;;13.73;85.51;101494.25;5062851;28;20064;-84
2021/06/24 04:18:03;;;;;;;0.10;0.10;;;;;;;13.64;86.35;101495.13;5064045;28;20049;-85
2021/06/24 04:20:51;;;;;;;0.20;0.10;;;;;;;13.61;86.97;101488.28;5062505;28;20036;-84
2021/06/24 04:23:26;;;;;;;0.10;0.10;;;;;;;13.54;87.20;101490.50;5058596;28;20052;-83
2021/06/24 04:26:03;;;;;;;0.20;0.20;;;;;;;13.66;86.74;101498.38;5053497;28;20371;-83
2021/06/24 04:29:02;;;;;;;0.13;0.13;;;;;;;13.60;86.31;101498.44;5058121;28;20056;-83
2021/06/24 04:31:36;;;;;;;0.10;0.10;;;;;;;13.53;87.35;101500.63;5057963;28;20480;-83
2021/06/24 04:34:11;;;;;;;0.10;0.10;;;;;;;13.56;86.94;101496.50;5058845;28;20049;-83
2021/06/24 04:37:24;;;;;;;0.20;0.20;;;;;;;13.46;87.61;101482.91;5068888;28;20051;-82
2021/06/24 04:40:01;;;;;;;0.20;0.20;;;;;;;13.66;86.79;101473.75;5055257;28;20390;-83
2021/06/24 04:42:52;;;;;;;0.20;0.20;;;;;;;13.51;88.21;101483.69;5060729;28;20052;-82
2021/06/24 04:45:33;;;;;;;0.20;0.20;;;;;;;13.47;87.44;101484.53;5063842;28;20068;-83
2021/06/24 04:48:19;;;;;;;0.20;0.20;;;;;;;13.50;87.80;101481.22;5069154;28;20048;-83
2021/06/24 04:51:13;;;;;;;;;;;;;;;13.41;89.20;101481.81;5056972;28;20059;-83
2021/06/24 04:53:43;;;;;;;0.17;0.17;;;;;;;13.32;88.98;101471.72;5058075;28;19920;-83
2021/06/24 04:56:23;;;;;;;0.17;0.17;;;;;;;13.59;87.30;101469.44;5056548;28;20045;-82
2021/06/24 04:58:59;;;;;;;0.10;0.10;;;;;;;13.48;87.94;101480.69;5061691;28;20499;-82
2021/06/24 05:02:18;;;;;;;0.10;0.10;;;;;;;13.51;88.49;101477.41;5058125;28;20052;-82
2021/06/24 05:05:20;;;;;;;0.20;0.20;;;;;;;13.43;89.55;101468.66;5055898;28;20068;-82
2021/06/24 05:07:55;;;;;;;0.17;0.17;;;;;;;13.44;89.47;101458.56;5055085;28;20521;-82
2021/06/24 05:10:24;;;;;;;0.20;0.20;;;;;;;13.54;88.79;101463.97;5055022;28;20049;-82
2021/06/24 05:12:57;;;;;;;0.10;0.10;;;;;;;13.45;88.88;101452.00;5055224;28;20501;-82
2021/06/24 05:15:31;;;;;;;0.20;0.20;;;;;;;13.60;88.68;101453.81;5057022;28;20049;-82
2021/06/24 05:18:11;;;;;;;0.20;0.20;;;;;;;13.58;88.79;101456.84;5059150;28;20485;-81
2021/06/24 05:20:47;;;;;;;0.20;0.20;;;;;;;13.56;89.08;101450.03;5068492;28;20049;-81
2021/06/24 05:23:20;;;;;;;0.20;0.20;;;;;;;13.57;88.24;101454.41;5062048;28;20040;-82
2021/06/24 05:25:48;;;;;;;0.20;0.20;;;;;;;13.48;88.98;101459.66;5058061;28;20041;-82
2021/06/24 05:28:47;;;;;;;0.20;0.20;;;;;;;13.51;88.36;101453.59;5055710;28;20037;-82
2021/06/24 05:31:16;;;;;;;0.20;0.20;;;;;;;13.55;88.84;101451.94;5056180;28;20478;-82
2021/06/24 05:33:51;;;;;;;0.10;0.10;;;;;;;13.82;87.52;101450.69;5068407;28;20052;-81
2021/06/24 05:36:27;;;;;;;0.20;0.20;;;;;;;13.80;87.65;101452.91;5060306;28;20595;-82
2021/06/24 05:39:27;;;;;;;0.20;0.20;;;;;;;13.80;87.96;101463.84;5067608;28;20052;-82
2021/06/24 05:42:02;;;;;;;0.20;0.20;;;;;;;13.80;87.37;101457.56;5056796;28;20908;-81
2021/06/24 05:44:37;;;;;;;0.20;0.20;;;;;;;13.55;87.03;101462.09;5058159;28;20052;-82
2021/06/24 05:47:13;;;;;;;0.10;0.10;;;;;;;13.49;86.90;101461.28;5056581;28;20570;-83
2021/06/24 05:49:50;;;;;;;0.22;0.22;;;;;;;13.54;87.77;101452.22;5051926;28;20045;-83
2021/06/24 05:52:29;;;;;;;0.15;0.15;;;;;;;13.59;87.59;101463.97;5054410;28;20056;-82
2021/06/24 05:54:58;;;;;;;0.10;0.10;;;;;;;13.59;87.83;101469.44;5046876;28;20053;-84
2021/06/24 05:57:31;;;;;;;0.20;0.20;;;;;;;13.60;87.41;101464.75;5046502;28;20045;-83
2021/06/24 06:00:06;;;;;;;0.60;0.20;;;;;;;13.66;86.77;101469.13;5044452;28;20531;-84
2021/06/24 06:02:42;;;;;;;0.20;0.20;;;;;;;13.65;86.87;101461.22;5065597;28;20056;-83
2021/06/24 06:05:17;;;;;;;0.20;0.20;;;;;;;13.49;87.37;101468.66;5051480;28;20060;-82
2021/06/24 06:07:51;;;;;;;0.10;0.10;;;;;;;13.48;87.88;101464.28;5048901;28;20049;-84
2021/06/24 06:10:25;;;;;;;0.20;0.20;;;;;;;13.40;86.79;101462.97;5045146;28;20679;-83
2021/06/24 06:12:56;;;;;;;0.10;0.10;;;;;;;13.58;87.36;101481.47;5047842;28;20064;-83
2021/06/24 06:15:56;;;;;;;0.20;0.20;;;;;;;13.63;87.72;101475.16;5050383;28;20716;-83
2021/06/24 06:18:30;;;;;;;0.20;0.20;;;;;;;13.67;86.68;101476.25;5047562;28;20032;-82
2021/06/24 06:21:10;;;;;;;0.10;0.10;;;;;;;13.66;86.79;101481.97;5052934;28;20060;-84
2021/06/24 06:23:49;;;;;;;0.15;0.15;;;;;;;13.75;85.92;101477.56;5052253;28;20669;-82
2021/06/24 06:26:25;;;;;;;0.13;0.13;;;;;;;13.70;86.27;101486.63;5047624;28;20055;-83
2021/06/24 06:29:03;;;;;;;0.20;0.20;;;;;;;13.72;86.20;101480.84;5053758;28;20508;-83
2021/06/24 06:31:39;;;;;;;;;;;;;;;13.90;84.91;101487.59;5049833;28;20044;-82
2021/06/24 06:34:13;;;;;;;0.25;0.25;;;;;;;13.84;86.43;101488.75;5051874;28;19929;-84
2021/06/24 06:36:49;;;;;;;0.20;0.20;;;;;;;13.83;86.31;101473.41;5048305;28;20068;-83
2021/06/24 06:39:27;;;;;;;0.10;0.10;;;;;;;13.83;86.23;101479.69;5047531;28;20133;-83
2021/06/24 06:42:01;;;;;;;0.10;0.10;;;;;;;13.88;85.98;101484.31;5044788;28;20060;-82
2021/06/24 06:44:37;;;;;;;0.20;0.20;;;;;;;14.08;84.39;101488.84;5062838;28;20067;-83
2021/06/24 06:47:11;;;;;;;0.20;0.20;;;;;;;14.01;85.08;101488.38;5047106;28;20056;-83
2021/06/24 06:49:47;;;;;;;0.20;0.20;;;;;;;14.12;85.08;101479.78;5047578;28;20040;-82
2021/06/24 06:52:21;;;;;;;0.20;0.20;;;;;;;13.97;85.00;101471.69;5047063;28;20044;-83
2021/06/24 06:54:55;;;;;;;0.20;0.20;;;;;;;13.99;85.61;101487.81;5043699;28;20508;-83
2021/06/24 06:57:25;;;;;;;0.10;0.10;;;;;;;14.15;84.56;101480.34;5045197;28;20064;-83
2021/06/24 06:59:58;;;;;;;0.17;0.17;;;;;;;14.27;84.66;101489.81;5048025;28;20060;-84
2021/06/24 07:02:33;;;;;;;0.10;0.10;;;;;;;14.49;83.58;101485.81;5049282;28;20063;-83
2021/06/24 07:05:09;;;;;;;0.20;0.20;;;;;;;14.24;84.02;101467.69;5049985;28;20064;-83
2021/06/24 07:07:46;;;;;;;0.10;0.10;;;;;;;14.31;82.52;101481.84;5063888;28;20999;-83
2021/06/24 07:10:21;;;;;;;0.10;0.10;;;;;;;14.25;83.40;101488.47;5046115;28;20061;-85
2021/06/24 07:12:55;;;;;;;0.10;0.10;;;;;;;14.44;83.01;101485.84;5049514;28;20096;-83
2021/06/24 07:15:30;;;;;;;0.20;0.20;;;;;;;14.40;83.81;101482.06;5057746;28;20044;-82
2021/06/24 07:18:06;;;;;;;0.20;0.20;;;;;;;14.54;83.94;101488.53;5045142;28;20056;-83
2021/06/24 07:20:42;;;;;;;0.20;0.20;;;;;;;14.45;83.28;101488.31;5054186;28;20041;-83
2021/06/24 07:23:42;;;;;;;0.20;0.20;;;;;;;14.55;82.94;101494.81;5050277;28;20528;-82
2021/06/24 07:26:16;;;;;;;0.17;0.17;;;;;;;14.62;82.12;101489.81;5053779;28;20051;-83
2021/06/24 07:28:44;;;;;;;0.10;0.10;;;;;;;14.76;82.98;101488.09;5048727;28;20879;-83
2021/06/24 07:31:19;;;;;;;0.10;0.10;;;;;;;14.70;80.53;101485.69;5050478;28;20401;-83
2021/06/24 07:33:52;;;;;;;0.10;0.10;;;;;;;14.44;81.45;101474.91;5048297;28;20055;-82
2021/06/24 07:36:24;;;;;;;0.20;0.20;;;;;;;14.55;82.79;101486.59;5059167;28;20064;-83
2021/06/24 07:39:03;;;;;;;0.20;0.20;;;;;;;14.52;81.47;101473.47;5054412;28;20056;-82
2021/06/24 07:41:40;;;;;;;0.20;0.20;;;;;;;14.54;81.48;101460.31;5047892;28;20059;-83
2021/06/24 07:44:14;;;;;;;0.20;0.20;;;;;;;14.80;82.14;101480.09;5062696;28;20052;-82
2021/06/24 07:46:49;;;;;;;0.15;0.15;;;;;;;14.91;78.77;101475.34;5050215;28;20067;-83
2021/06/24 07:49:23;;;;;;;0.20;0.20;;;;;;;14.89;79.44;101466.59;5050499;28;20052;-83
2021/06/24 07:51:58;;;;;;;0.20;0.20;;;;;;;14.82;79.95;101471.59;5048490;28;20782;-84
2021/06/24 07:55:03;;;;;;;0.10;0.10;;;;;;;15.00;80.40;101459.06;5048112;28;20072;-84
2021/06/24 07:57:32;;;;;;;0.20;0.20;;;;;;;14.85;80.05;101458.13;5047452;28;20052;-83
2021/06/24 08:00:08;;;;;;;0.20;0.20;;;;;;;14.82;80.29;101452.41;5050294;28;20044;-83
2021/06/24 08:02:43;;;;;;;0.20;0.20;;;;;;;14.90;81.54;101449.03;5052135;28;20056;-84
2021/06/24 08:05:21;;;;;;;0.20;0.20;;;;;;;15.20;80.46;101445.13;5051039;28;20056;-83
2021/06/24 08:07:55;;;;;;;0.20;0.20;;;;;;;15.25;80.67;101442.34;5048610;28;20045;-84
2021/06/24 08:10:31;;;;;;;0.20;0.20;;;;;;;15.40;79.30;101446.00;5047495;28;20587;-85
2021/06/24 08:13:05;;;;;;;0.27;0.27;;;;;;;15.52;79.27;101442.81;5059767;28;20056;-85
2021/06/24 08:15:41;;;;;;;0.20;0.20;;;;;;;15.49;81.06;101444.22;5046500;28;20056;-84
2021/06/24 08:18:18;;;;;;;0.20;0.20;;;;;;;15.69;79.46;101437.66;5051757;28;20057;-84
2021/06/24 08:21:18;;;;;;;0.20;0.20;;;;;;;16.07;77.90;101448.63;5048723;28;20044;-84
2021/06/24 08:23:48;;;;;;;0.20;0.20;;;;;;;16.03;77.25;101433.06;5049088;28;20052;-84
2021/06/24 08:26:24;;;;;;;0.10;0.10;;;;;;;16.10;76.64;101433.50;5047937;28;20060;-84
2021/06/24 08:29:04;;;;;;;0.20;0.20;;;;;;;16.21;78.37;101421.22;5045388;28;20405;-85
2021/06/24 08:31:42;;;;;;;0.20;0.20;;;;;;;16.13;80.69;101413.72;5044775;28;20060;-84
2021/06/24 08:34:16;;;;;;;0.10;0.10;;;;;;;16.46;76.00;101432.91;5047011;28;20056;-84
2021/06/24 08:36:47;;;;;;;0.15;0.15;;;;;;;16.51;78.57;101430.06;5051703;28;20060;-85
2021/06/24 08:39:22;;;;;;;0.20;0.20;;;;;;;16.59;78.06;101423.88;5047931;28;20064;-85
2021/06/24 08:41:59;;;;;;;0.10;0.10;;;;;;;16.58;76.02;101411.25;5048036;28;20061;-87
2021/06/24 08:44:34;;;;;;;0.15;0.15;;;;;;;16.65;73.51;101425.44;5051285;28;20063;-85
2021/06/24 08:47:04;;;;;;;0.20;0.20;;;;;;;16.64;77.15;101422.97;5050383;28;20057;-85
2021/06/24 08:49:42;;;;;;;0.10;0.10;;;;;;;16.65;77.17;101414.44;5050204;28;21409;-86
2021/06/24 08:52:43;;;;;;;0.20;0.20;;;;;;;16.65;76.07;101405.38;5067584;28;20056;-85
2021/06/24 08:55:18;;;;;;;0.20;0.20;;;;;;;16.58;75.48;101410.47;5048590;28;20645;-85
2021/06/24 08:57:52;;;;;;;0.20;0.20;;;;;;;16.80;74.78;101407.03;5052477;28;20049;-85
2021/06/24 09:00:27;;;;;;;0.20;0.20;;;;;;;17.03;78.37;101405.22;5063394;28;20111;-86
2021/06/24 09:03:15;;;;;;;0.10;0.10;;;;;;;17.09;71.65;101409.50;5050295;28;20044;-85
2021/06/24 09:05:59;;;;;;;0.15;0.15;;;;;;;17.26;71.33;101402.56;5056608;28;20393;-85
2021/06/24 09:08:44;;;;;;;0.10;0.10;;;;;;;17.20;72.34;101409.31;5049808;28;20048;-85
2021/06/24 09:11:21;;;;;;;0.20;0.20;;;;;;;17.43;70.66;101410.19;5046865;28;20052;-84
2021/06/24 09:14:04;;;;;;;0.20;0.20;;;;;;;17.32;67.09;101393.09;5044994;28;20090;-85
2021/06/24 09:16:43;;;;;;;0.10;0.10;;;;;;;17.30;69.93;101395.31;5050204;28;20075;-85
2021/06/24 09:19:20;;;;;;;0.20;0.20;;;;;;;17.49;73.79;101411.69;5061699;28;20061;-85
2021/06/24 09:21:57;;;;;;;0.10;0.10;;;;;;;17.49;75.05;101393.22;5047775;28;21747;-86
2021/06/24 09:24:34;;;;;;;0.20;0.20;;;;;;;17.61;73.85;101403.72;5043782;28;20041;-84
2021/06/24 09:27:24;;;;;;;0.10;0.10;;;;;;;17.84;71.28;101410.06;5045975;28;20060;-85
2021/06/24 09:30:08;;;;;;;0.10;0.10;;;;;;;17.98;73.60;101409.22;5053639;28;20052;-84
2021/06/24 09:32:48;;;;;;;0.20;0.20;;;;;;;18.07;70.73;101415.63;5047989;28;20718;-84
2021/06/24 09:35:22;;;;;;;0.15;0.10;;;;;;;18.04;67.97;101408.00;5050117;28;20060;-84
2021/06/24 09:38:00;;;;;;;0.20;0.20;;;;;;;17.97;67.57;101407.63;5045275;28;20057;-83
2021/06/24 09:40:41;;;;;;;0.15;0.15;;;;;;;18.05;66.94;101403.28;5042993;28;20060;-84
2021/06/24 09:43:16;;;;;;;0.10;0.10;;;;;;;18.03;71.19;101400.84;5042979;28;20056;-85
2021/06/24 09:46:05;;;;;;;0.10;0.10;;;;;;;17.93;70.95;101390.88;5045612;28;20132;-83
2021/06/24 09:48:37;;;;;;;0.10;0.10;;;;;;;17.97;70.22;101405.66;5043605;28;20071;-85
2021/06/24 09:51:15;;;;;;;0.20;0.20;;;;;;;18.11;67.54;101405.59;5041076;28;20049;-85
2021/06/24 09:53:49;;;;;;;0.10;0.10;;;;;;;18.51;67.88;101397.41;5041491;28;20056;-85
2021/06/24 09:56:22;;;;;;;0.10;0.10;;;;;;;18.49;65.95;101402.44;5046859;28;20060;-85
2021/06/24 09:58:59;;;;;;;0.10;0.10;;;;;;;18.39;71.11;101399.13;5049486;28;20045;-86
2021/06/24 10:01:39;;;;;;;0.20;0.20;;;;;;;18.39;65.33;101388.91;5042585;28;20393;-85
2021/06/24 10:04:20;;;;;;;0.10;0.10;;;;;;;18.62;70.63;101392.44;5044323;28;20771;-83
2021/06/24 10:06:56;;;;;;;0.20;0.20;;;;;;;18.54;70.63;101384.94;5043269;28;20056;-85
2021/06/24 10:09:32;;;;;;;0.10;0.10;;;;;;;18.68;64.04;101393.94;5042612;28;20056;-84
2021/06/24 10:12:01;;;;;;;0.10;0.10;;;;;;;18.63;66.55;101383.06;5048685;28;20485;-85
2021/06/24 10:14:42;;;;;;;0.10;0.10;;;;;;;18.47;69.38;101390.91;5048952;28;20069;-85
2021/06/24 10:17:22;;;;;;;0.10;0.10;;;;;;;18.36;63.17;101384.84;5047872;28;20091;-86
2021/06/24 10:19:57;;;;;;;0.10;0.10;;;;;;;17.93;64.15;101379.88;5049790;28;20056;-86
2021/06/24 10:22:33;;;;;;;0.20;0.20;;;;;;;17.87;64.54;101386.63;5047812;28;20076;-86
2021/06/24 10:25:13;;;;;;;0.20;0.20;;;;;;;18.09;65.83;101387.75;5045138;28;21326;-87
2021/06/24 10:28:13;;;;;;;0.20;0.20;;;;;;;18.18;65.51;101385.88;5047893;28;20057;-90
2021/06/24 10:30:43;;;;;;;0.10;0.10;;;;;;;17.95;63.05;101382.31;5045143;28;20942;-87
2021/06/24 10:33:18;;;;;;;0.10;0.10;;;;;;;17.95;64.04;101376.81;5061346;28;20057;-87
2021/06/24 10:35:51;;;;;;;0.17;0.17;;;;;;;18.02;65.06;101371.66;5046134;28;20049;-86
2021/06/24 10:38:22;;;;;;;0.10;0.10;;;;;;;18.16;63.89;101372.44;5044505;28;20063;-85
2021/06/24 10:40:59;;;;;;;0.20;0.20;;;;;;;18.29;65.21;101369.91;5044505;28;20053;-86
2021/06/24 10:43:46;;;;;;;0.10;0.10;;;;;;;18.50;65.01;101362.69;5046977;28;20060;-87
2021/06/24 10:46:25;;;;;;;0.20;0.20;;;;;;;18.54;63.67;101368.41;5042443;28;20150;-87
2021/06/24 10:49:27;;;;;;;0.10;0.10;;;;;;;18.42;65.46;101366.25;5043953;28;20045;-85
2021/06/24 10:52:18;;;;;;;0.20;0.20;;;;;;;18.69;64.45;101361.66;5044938;28;20048;-87
2021/06/24 10:54:54;;;;;;;0.20;0.20;;;;;;;18.58;62.14;101352.06;5046099;28;20053;-87
2021/06/24 10:57:34;;;;;;;0.10;0.10;;;;;;;18.78;63.03;101359.75;5050852;28;20520;-87
2021/06/24 11:00:30;;;;;;;0.20;0.20;;;;;;;18.91;63.44;101362.75;5064990;28;20056;-87
2021/06/24 11:03:00;;;;;;;0.10;0.10;;;;;;;18.51;65.27;101367.09;5049287;28;20053;-85
2021/06/24 11:05:39;;;;;;;0.10;0.10;;;;;;;18.46;62.65;101367.25;5047476;28;20059;-86
2021/06/24 11:08:16;;;;;;;0.10;0.10;;;;;;;18.58;62.83;101355.63;5048185;28;20532;-85
2021/06/24 11:10:53;;;;;;;;;;;;;;;18.65;67.64;101369.75;5053957;28;20052;-83
2021/06/24 11:13:47;;;;;;;0.10;0.10;;;;;;;18.66;67.52;101362.31;5042807;28;20469;-86
2021/06/24 11:16:31;;;;;;;0.10;0.10;;;;;;;18.49;64.11;101355.59;5046871;28;20048;-86
2021/06/24 11:19:06;;;;;;;0.10;0.10;;;;;;;18.45;65.04;101359.28;5048560;28;20053;-87
2021/06/24 11:21:52;;;;;;;0.20;0.20;;;;;;;18.41;63.20;101350.84;5047699;28;20045;-86
2021/06/24 11:24:26;;;;;;;0.10;0.10;;;;;;;18.12;65.84;101357.66;5048053;28;20063;-87
2021/06/24 11:26:59;;;;;;;0.17;0.17;;;;;;;18.09;66.76;101355.53;5047243;28;20573;-85
2021/06/24 11:29:47;;;;;;;0.10;0.10;;;;;;;17.92;67.48;101352.66;5055009;28;20052;-86
2021/06/24 11:32:21;;;;;;;0.10;0.10;;;;;;;17.87;68.02;101347.25;5046077;28;20052;-87
2021/06/24 11:35:02;;;;;;;0.20;0.20;;;;;;;17.88;71.38;101349.69;5043456;28;20661;-87
2021/06/24 11:37:38;;;;;;;0.10;0.10;;;;;;;17.70;66.10;101342.44;5045712;28;20060;-87
2021/06/24 11:40:14;;;;;;;0.10;0.10;;;;;;;17.63;66.95;101345.59;5046105;28;20045;-86
2021/06/24 11:42:47;;;;;;;0.10;0.10;;;;;;;17.75;66.51;101343.13;5065579;28;20056;-86
2021/06/24 11:45:25;;;;;;;0.10;0.10;;;;;;;17.60;68.10;101341.53;5050060;28;20060;-89
2021/06/24 11:47:58;;;;;;;0.10;0.10;;;;;;;17.67;69.09;101346.63;5046841;28;20563;-86
2021/06/24 12:04:58;;;;;;;0.13;0.13;;;;;;;17.75;67.00;101348.63;5047743;28;20552;-86
2021/06/24 12:07:27;;;;;;;0.20;0.20;;;;;;;17.78;68.16;101350.75;5046278;28;20048;-87
2021/06/24 12:10:05;;;;;;;0.10;0.10;;;;;;;18.09;65.15;101340.94;5046790;28;20045;-87
2021/06/24 12:12:41;;;;;;;0.10;0.10;;;;;;;17.98;66.15;101338.44;5050582;28;20057;-85
2021/06/24 12:15:16;;;;;;;0.20;0.20;;;;;;;18.07;66.79;101344.00;5052752;28;20931;-87
2021/06/24 12:17:51;;;;;;;0.10;0.10;;;;;;;18.17;65.57;101338.25;5049522;28;20060;-85
2021/06/24 12:20:23;;;;;;;0.20;0.20;;;;;;;18.36;66.03;101332.50;5048176;28;21449;-85
2021/06/24 12:23:01;;;;;;;0.10;0.10;;;;;;;18.21;66.91;101332.09;5049050;28;21342;-85
2021/06/24 12:25:37;;;;;;;0.10;0.10;;;;;;;18.19;70.22;101340.69;5052685;28;20053;-86
2021/06/24 12:28:14;;;;;;;0.10;0.10;;;;;;;18.28;64.54;101340.72;5047967;28;20057;-86
2021/06/24 12:30:51;;;;;;;0.10;0.10;;;;;;;18.12;70.21;101318.28;5049525;28;20049;-86
2021/06/24 12:33:28;;;;;;;0.10;0.10;;;;;;;18.11;67.27;101333.19;5043125;28;20053;-85
2021/06/24 12:36:02;;;;;;;0.13;0.10;;;;;;;18.04;69.76;101327.31;5051254;28;20056;-88
2021/06/24 12:38:36;;;;;;;0.10;0.10;;;;;;;18.08;68.81;101336.56;5048504;28;20049;-87
2021/06/24 12:41:14;;;;;;;0.10;0.10;;;;;;;18.07;69.24;101329.44;5045608;28;20057;-85
2021/06/24 12:43:50;;;;;;;0.20;0.20;;;;;;;17.99;68.87;101323.56;5045244;28;20055;-87
2021/06/24 12:46:27;;;;;;;0.10;0.10;;;;;;;17.87;66.48;101316.94;5044229;28;20060;-86
2021/06/24 12:49:03;;;;;;;0.10;0.10;;;;;;;17.84;67.68;101308.22;5042393;28;20045;-85